Chantaco — FMLM — position and weather

sailwx.info

Track history (hours):
 
Tides and Currents Weather Stations Pressure Air Temp Water Temp Dewpoint Dewpoint Depression Visibility Wind Speed Wind Dir Waves Ship Positions

Chantaco

Last reported at 2016-Dec-09 07:32 UTC. Time now 2016-Dec-09 07:46 UTC.
Position N 53°38' W 000°10'.

Length 143 m; draft 8.9 m.

Type: Tanker. MMSI: 228330700.

Date/timePositionNaut miles runAvg speedWind from/ knotsBaromVisibWave heightAir tempDewpointWater temp
2016-Dec-09 07:32N 53°38' W 000°10'0 0.0
2016-Dec-09 06:32N 53°38' W 000°10'0 0.0
2016-Dec-09 05:32N 53°38' W 000°10'0 0.0
2016-Dec-09 04:32N 53°38' W 000°10'0 0.0
2016-Dec-09 03:32N 53°38' W 000°10'0 0.0
2016-Dec-09 02:32N 53°38' W 000°10'0 0.0
2016-Dec-09 01:32N 53°38' W 000°10'0 0.0
2016-Dec-09 00:32N 53°38' W 000°10'0 0.0
2016-Dec-08 23:32N 53°38' W 000°10'0 0.0
2016-Dec-08 22:32N 53°38' W 000°10'0 0.0
2016-Dec-08 21:32N 53°38' W 000°10'0 0.0
2016-Dec-08 20:32N 53°38' W 000°10'0 0.0
2016-Dec-08 19:29N 53°38' W 000°10'0 0.0
2016-Dec-08 18:32N 53°38' W 000°10'0 0.1
2016-Dec-08 17:34N 53°38' W 000°09'7 7.2
2016-Dec-08 16:33N 53°36' E 000°02'47 7.6
2016-Dec-08 10:23N 53°16' E 001°14'1112.9
2016-Dec-08 09:33N 53°07' E 001°24'1413.9
2016-Dec-08 08:34N 52°56' E 001°37'1515.0
2016-Dec-08 07:33N 52°47' E 001°57'1714.8
2016-Dec-08 06:24N 52°31' E 002°08'1214.1
2016-Dec-08 05:33N 52°20' E 002°15'1913.0
2016-Dec-08 04:04N 52°02' E 002°25'812.1
2016-Dec-08 03:24N 51°55' E 002°33'1012.2
2016-Dec-08 02:33N 51°47' E 002°42'1212.3
2016-Dec-08 01:33N 51°34' E 002°43'1212.3
2016-Dec-08 00:33N 51°22' E 002°45'1312.7
2016-Dec-07 23:33N 51°24' E 003°05'1413.7
2016-Dec-07 22:33N 51°25' E 003°27'1110.7
2016-Dec-07 21:33N 51°23' E 003°44'1110.9
2016-Dec-07 20:33N 51°26' E 004°00'9 9.1
2016-Dec-07 19:33N 51°22' E 004°13'3 2.8
2016-Dec-07 18:33N 51°21' E 004°17'1 0.5
2016-Dec-07 17:32N 51°20' E 004°18'4 3.9
2016-Dec-07 16:33N 51°17' E 004°21'1 0.8
2016-Dec-07 15:28N 51°16' E 004°20'0 0.0
2016-Dec-07 14:28N 51°16' E 004°20'0 0.0
2016-Dec-07 13:28N 51°16' E 004°20'0 0.0
2016-Dec-07 12:31N 51°16' E 004°20'0 0.0
2016-Dec-07 11:28N 51°16' E 004°20'0 0.0
2016-Dec-07 10:28N 51°16' E 004°20'0 0.0
2016-Dec-07 09:28N 51°16' E 004°20'0 0.0
2016-Dec-07 08:10N 51°16' E 004°20'0 0.0
2016-Dec-07 07:10N 51°16' E 004°20'0 0.0
2016-Dec-07 04:10N 51°16' E 004°20'0 0.0
2016-Dec-07 02:25N 51°16' E 004°20'0 0.0
2016-Dec-07 01:28N 51°16' E 004°20'0 0.0
2016-Dec-06 20:28N 51°16' E 004°20'0 0.0
2016-Dec-06 18:21N 51°16' E 004°20'0 0.0
2016-Dec-06 14:18N 51°16' E 004°20'0 0.0
2016-Dec-06 13:21N 51°16' E 004°20'0 0.0
2016-Dec-06 11:30N 51°16' E 004°20'0 0.0
2016-Dec-06 10:33N 51°16' E 004°20'0 0.0
2016-Dec-06 09:33N 51°16' E 004°20'0 0.0
2016-Dec-06 08:27N 51°16' E 004°20'0 0.0
2016-Dec-06 07:27N 51°16' E 004°20'0 0.0
2016-Dec-06 06:09N 51°16' E 004°20'0 0.0
2016-Dec-06 05:33N 51°16' E 004°20'0 0.0
2016-Dec-06 04:27N 51°16' E 004°20'0 0.0
2016-Dec-06 03:33N 51°16' E 004°20'0 0.0
2016-Dec-06 02:21N 51°16' E 004°20'0 0.0
2016-Dec-06 01:33N 51°16' E 004°20'0 0.0
2016-Dec-06 00:33N 51°16' E 004°20'0 0.0
2016-Dec-05 20:21N 51°16' E 004°20'0 0.0
2016-Dec-05 19:27N 51°16' E 004°20'0 0.0
2016-Dec-05 18:33N 51°16' E 004°20'0 0.0
2016-Dec-05 16:33N 51°16' E 004°20'0 0.0
2016-Dec-05 14:27N 51°16' E 004°20'0 0.0
2016-Dec-05 13:21N 51°16' E 004°20'0 0.0
2016-Dec-05 12:33N 51°16' E 004°20'0 0.0
2016-Dec-05 11:33N 51°16' E 004°20'0 0.3
2016-Dec-05 10:34N 51°16' E 004°20'5 4.7
2016-Dec-05 09:33N 51°21' E 004°17'4 4.3
2016-Dec-05 08:33N 51°24' E 004°12'9 8.7
2016-Dec-05 07:34N 51°26' E 003°59'10 9.9
2016-Dec-05 06:34N 51°22' E 003°44'1111.0
2016-Dec-05 05:34N 51°25' E 003°27'1514.9
2016-Dec-05 04:34N 51°25' E 003°03'1313.4
2016-Dec-05 03:33N 51°22' E 002°42'1414.1
2016-Dec-05 02:33N 51°19' E 002°20'1515.2
2016-Dec-05 01:33N 51°12' E 001°58'1414.4
2016-Dec-05 00:33N 51°04' E 001°39'1211.7
2016-Dec-04 23:33N 50°56' E 001°26'1312.7
2016-Dec-04 22:30N 50°42' E 001°22'5113.0
2016-Dec-04 18:33N 50°05' E 000°26'1312.8
2016-Dec-04 17:33N 49°56' E 000°13'1312.8
2016-Dec-04 16:33N 49°46' W 000°00'1312.9
2016-Dec-04 15:33N 49°33' W 000°02'10 9.6
2016-Dec-04 14:34N 49°29' E 000°10'1 0.5
2016-Dec-04 13:33N 49°29' E 000°11'0 0.0
2016-Dec-04 12:33N 49°29' E 000°11'0 0.0
2016-Dec-04 11:33N 49°29' E 000°11'0 0.0
2016-Dec-04 10:33N 49°29' E 000°11'0 0.0
2016-Dec-04 09:33N 49°29' E 000°11'0 0.0
2016-Dec-04 08:33N 49°29' E 000°11'0 0.0
2016-Dec-04 07:33N 49°29' E 000°11'0 0.0
2016-Dec-04 06:33N 49°29' E 000°11'0 0.0
2016-Dec-04 05:33N 49°29' E 000°11'0 0.0
2016-Dec-04 04:33N 49°29' E 000°11'0 0.0
2016-Dec-04 03:33N 49°29' E 000°11'0 0.0
2016-Dec-04 02:33N 49°29' E 000°11'0 0.0
2016-Dec-04 01:33N 49°29' E 000°11'0 0.0
2016-Dec-04 00:33N 49°29' E 000°11'0 0.0
2016-Dec-03 23:33N 49°29' E 000°11'0 0.0
2016-Dec-03 22:33N 49°29' E 000°11'0 0.0
2016-Dec-03 21:33N 49°29' E 000°11'0 0.0
2016-Dec-03 20:33N 49°29' E 000°11'0 0.0
2016-Dec-03 19:33N 49°29' E 000°11'0 0.0
2016-Dec-03 18:33N 49°29' E 000°11'0 0.0
2016-Dec-03 17:33N 49°29' E 000°11'0 0.0
2016-Dec-03 16:33N 49°29' E 000°11'0 0.0
2016-Dec-03 15:33N 49°29' E 000°11'0 0.0
2016-Dec-03 14:33N 49°29' E 000°11'0 0.0
2016-Dec-03 13:33N 49°29' E 000°11'1 1.2
2016-Dec-03 12:33N 49°28' E 000°09'7 7.0
2016-Dec-03 11:33N 49°30' W 000°01'1 1.2
2016-Dec-03 10:33N 49°30' W 000°03'0 0.2
2016-Dec-03 09:33N 49°30' W 000°03'0 0.0
2016-Dec-03 08:33N 49°30' W 000°03'0 0.1
2016-Dec-03 07:33N 49°30' W 000°03'0 0.0
2016-Dec-03 06:33N 49°30' W 000°03'0 0.0
2016-Dec-03 05:33N 49°30' W 000°03'0 0.0
2016-Dec-03 04:33N 49°30' W 000°03'0 0.0
2016-Dec-03 03:33N 49°30' W 000°03'0 0.0
2016-Dec-03 02:33N 49°30' W 000°03'0 0.0
2016-Dec-03 01:33N 49°30' W 000°03'0 0.0
2016-Dec-03 00:33N 49°30' W 000°03'0 0.1
2016-Dec-02 23:33N 49°30' W 000°03'0 0.0
2016-Dec-02 22:33N 49°30' W 000°03'0 0.1
2016-Dec-02 21:33N 49°30' W 000°03'0 0.0
2016-Dec-02 20:33N 49°30' W 000°03'0 0.1
2016-Dec-02 19:33N 49°30' W 000°03'0 0.1
2016-Dec-02 18:32N 49°30' W 000°03'0 0.0
2016-Dec-02 17:32N 49°30' W 000°03'0 0.0
2016-Dec-02 16:32N 49°30' W 000°03'0 0.0
2016-Dec-02 15:32N 49°30' W 000°03'0 0.0
2016-Dec-02 14:32N 49°30' W 000°03'0 0.0
2016-Dec-02 13:32N 49°30' W 000°03'0 0.1
2016-Dec-02 12:32N 49°30' W 000°03'0 0.0
2016-Dec-02 11:32N 49°30' W 000°03'0 0.0
2016-Dec-02 10:32N 49°30' W 000°03'0 0.0
2016-Dec-02 09:32N 49°30' W 000°03'0 0.1
2016-Dec-02 08:32N 49°30' W 000°03'0 0.1
2016-Dec-02 07:32N 49°30' W 000°03'0 0.1
2016-Dec-02 06:32N 49°30' W 000°03'0 0.1
2016-Dec-02 05:32N 49°30' W 000°03'0 0.0
2016-Dec-02 04:32N 49°30' W 000°03'0 0.0
2016-Dec-02 03:32N 49°30' W 000°03'0 0.0
2016-Dec-02 02:32N 49°30' W 000°03'0 0.0
2016-Dec-02 01:32N 49°30' W 000°03'0 0.0
2016-Dec-02 00:32N 49°30' W 000°03'0 0.1
2016-Dec-01 23:32N 49°30' W 000°03'0 0.0
2016-Dec-01 22:32N 49°30' W 000°03'0 0.0
2016-Dec-01 21:32N 49°30' W 000°03'0 0.1
2016-Dec-01 20:32N 49°30' W 000°03'0 0.1
2016-Dec-01 19:32N 49°30' W 000°03'0 0.1
2016-Dec-01 18:32N 49°30' W 000°03'0 0.1
2016-Dec-01 17:32N 49°30' W 000°03'0 0.0
2016-Dec-01 16:32N 49°30' W 000°03'0 0.0
2016-Dec-01 15:32N 49°30' W 000°03'0 0.0
2016-Dec-01 14:32N 49°30' W 000°03'0 0.1
2016-Dec-01 13:32N 49°30' W 000°03'0 0.1
2016-Dec-01 12:32N 49°30' W 000°03'0 0.0
2016-Dec-01 11:32N 49°30' W 000°03'0 0.0
2016-Dec-01 10:32N 49°30' W 000°03'0 0.0
2016-Dec-01 09:32N 49°30' W 000°03'0 0.0
2016-Dec-01 08:32N 49°30' W 000°03'0 0.1
2016-Dec-01 07:32N 49°30' W 000°03'0 0.1
2016-Dec-01 06:31N 49°30' W 000°03'0 0.1
2016-Dec-01 05:31N 49°30' W 000°03'0 0.0
2016-Dec-01 04:31N 49°30' W 000°03'0 0.0
2016-Dec-01 03:31N 49°30' W 000°03'0 0.0
2016-Dec-01 02:31N 49°30' W 000°03'0 0.0
2016-Dec-01 01:31N 49°30' W 000°03'0 0.0
2016-Dec-01 00:31N 49°30' W 000°03'0 0.1
2016-Nov-30 23:31N 49°30' W 000°03'0 0.0
2016-Nov-30 22:31N 49°30' W 000°03'0 0.0
2016-Nov-30 21:31N 49°30' W 000°03'0 0.0
2016-Nov-30 20:31N 49°30' W 000°03'0 0.1
2016-Nov-30 19:31N 49°30' W 000°03'0 0.1
2016-Nov-30 18:31N 49°30' W 000°03'0 0.1
2016-Nov-30 17:31N 49°30' W 000°03'0 0.0
2016-Nov-30 16:31N 49°30' W 000°03'0 0.0
2016-Nov-30 15:31N 49°30' W 000°03'0 0.0
2016-Nov-30 14:31N 49°30' W 000°03'0 0.0
2016-Nov-30 13:31N 49°30' W 000°03'0 0.1
2016-Nov-30 12:31N 49°30' W 000°03'0 0.1
2016-Nov-30 11:31N 49°30' W 000°03'0 0.0
2016-Nov-30 10:31N 49°30' W 000°03'0 0.0
2016-Nov-30 09:31N 49°30' W 000°03'0 0.0
2016-Nov-30 08:31N 49°30' W 000°03'0 0.1
2016-Nov-30 07:31N 49°30' W 000°03'0 0.0
2016-Nov-30 06:31N 49°30' W 000°03'0 0.1
2016-Nov-30 05:31N 49°30' W 000°03'0 0.1
2016-Nov-30 04:31N 49°30' W 000°03'0 0.0
2016-Nov-30 03:31N 49°30' W 000°03'0 0.0
2016-Nov-30 02:31N 49°30' W 000°03'0 0.0
2016-Nov-30 01:31N 49°30' W 000°03'0 0.0
2016-Nov-30 00:31N 49°30' W 000°03'0 0.1
2016-Nov-29 23:33N 49°30' W 000°03'0 0.1
2016-Nov-29 22:34N 49°30' W 000°03'0 0.0
2016-Nov-29 21:34N 49°30' W 000°03'0 0.1
2016-Nov-29 20:34N 49°30' W 000°03'0 0.3
2016-Nov-29 19:32N 49°29' W 000°02'2 2.0
2016-Nov-29 18:33N 49°31' W 000°05'1413.6
2016-Nov-29 17:34N 49°44' W 000°02'1514.7
2016-Nov-29 16:34N 49°56' E 000°12'2015.0
2016-Nov-29 15:12N 50°11' E 000°32'913.6
2016-Nov-29 14:31N 50°21' E 000°33'3612.2
2016-Nov-29 11:33N 50°50' E 001°07'1211.9
2016-Nov-29 10:33N 50°57' E 001°21'1313.3
2016-Nov-29 09:34N 51°08' E 001°34'1514.9
2016-Nov-29 08:34N 51°19' E 001°50'1615.6
2016-Nov-29 07:33N 51°32' E 002°04'  
Track history (hours):
 
Tides and Currents Weather Stations Pressure Air Temp Water Temp Dewpoint Dewpoint Depression Visibility Wind Speed Wind Dir Waves Ship Positions

Chantaco

Last reported at 2016-Dec-09 07:32 UTC. Time now 2016-Dec-09 07:46 UTC.
Position N 53°38' W 000°10'.

Length 143 m; draft 8.9 m.

Type: Tanker. MMSI: 228330700.

Date/timePositionNaut miles runAvg speedWind from/ knotsBaromVisibWave heightAir tempDewpointWater temp
2016-Dec-09 07:32N 53°38' W 000°10'0 0.0
2016-Dec-09 06:32N 53°38' W 000°10'0 0.0
2016-Dec-09 05:32N 53°38' W 000°10'0 0.0
2016-Dec-09 04:32N 53°38' W 000°10'0 0.0
2016-Dec-09 03:32N 53°38' W 000°10'0 0.0
2016-Dec-09 02:32N 53°38' W 000°10'0 0.0
2016-Dec-09 01:32N 53°38' W 000°10'0 0.0
2016-Dec-09 00:32N 53°38' W 000°10'0 0.0
2016-Dec-08 23:32N 53°38' W 000°10'0 0.0
2016-Dec-08 22:32N 53°38' W 000°10'0 0.0
2016-Dec-08 21:32N 53°38' W 000°10'0 0.0
2016-Dec-08 20:32N 53°38' W 000°10'0 0.0
2016-Dec-08 19:29N 53°38' W 000°10'0 0.0
2016-Dec-08 18:32N 53°38' W 000°10'0 0.1
2016-Dec-08 17:34N 53°38' W 000°09'7 7.2
2016-Dec-08 16:33N 53°36' E 000°02'47 7.6
2016-Dec-08 10:23N 53°16' E 001°14'1112.9
2016-Dec-08 09:33N 53°07' E 001°24'1413.9
2016-Dec-08 08:34N 52°56' E 001°37'1515.0
2016-Dec-08 07:33N 52°47' E 001°57'1714.8
2016-Dec-08 06:24N 52°31' E 002°08'1214.1
2016-Dec-08 05:33N 52°20' E 002°15'1913.0
2016-Dec-08 04:04N 52°02' E 002°25'812.1
2016-Dec-08 03:24N 51°55' E 002°33'1012.2
2016-Dec-08 02:33N 51°47' E 002°42'1212.3
2016-Dec-08 01:33N 51°34' E 002°43'1212.3
2016-Dec-08 00:33N 51°22' E 002°45'1312.7
2016-Dec-07 23:33N 51°24' E 003°05'1413.7
2016-Dec-07 22:33N 51°25' E 003°27'1110.7
2016-Dec-07 21:33N 51°23' E 003°44'1110.9
2016-Dec-07 20:33N 51°26' E 004°00'9 9.1
2016-Dec-07 19:33N 51°22' E 004°13'3 2.8
2016-Dec-07 18:33N 51°21' E 004°17'1 0.5
2016-Dec-07 17:32N 51°20' E 004°18'4 3.9
2016-Dec-07 16:33N 51°17' E 004°21'1 0.8
2016-Dec-07 15:28N 51°16' E 004°20'0 0.0
2016-Dec-07 14:28N 51°16' E 004°20'0 0.0
2016-Dec-07 13:28N 51°16' E 004°20'0 0.0
2016-Dec-07 12:31N 51°16' E 004°20'0 0.0
2016-Dec-07 11:28N 51°16' E 004°20'0 0.0
2016-Dec-07 10:28N 51°16' E 004°20'0 0.0
2016-Dec-07 09:28N 51°16' E 004°20'0 0.0
2016-Dec-07 08:10N 51°16' E 004°20'0 0.0
2016-Dec-07 07:10N 51°16' E 004°20'0 0.0
2016-Dec-07 04:10N 51°16' E 004°20'0 0.0
2016-Dec-07 02:25N 51°16' E 004°20'0 0.0
2016-Dec-07 01:28N 51°16' E 004°20'0 0.0
2016-Dec-06 20:28N 51°16' E 004°20'0 0.0
2016-Dec-06 18:21N 51°16' E 004°20'0 0.0
2016-Dec-06 14:18N 51°16' E 004°20'0 0.0
2016-Dec-06 13:21N 51°16' E 004°20'0 0.0
2016-Dec-06 11:30N 51°16' E 004°20'0 0.0
2016-Dec-06 10:33N 51°16' E 004°20'0 0.0
2016-Dec-06 09:33N 51°16' E 004°20'0 0.0
2016-Dec-06 08:27N 51°16' E 004°20'0 0.0
2016-Dec-06 07:27N 51°16' E 004°20'0 0.0
2016-Dec-06 06:09N 51°16' E 004°20'0 0.0
2016-Dec-06 05:33N 51°16' E 004°20'0 0.0
2016-Dec-06 04:27N 51°16' E 004°20'0 0.0
2016-Dec-06 03:33N 51°16' E 004°20'0 0.0
2016-Dec-06 02:21N 51°16' E 004°20'0 0.0
2016-Dec-06 01:33N 51°16' E 004°20'0 0.0
2016-Dec-06 00:33N 51°16' E 004°20'0 0.0
2016-Dec-05 20:21N 51°16' E 004°20'0 0.0
2016-Dec-05 19:27N 51°16' E 004°20'0 0.0
2016-Dec-05 18:33N 51°16' E 004°20'0 0.0
2016-Dec-05 16:33N 51°16' E 004°20'0 0.0
2016-Dec-05 14:27N 51°16' E 004°20'0 0.0
2016-Dec-05 13:21N 51°16' E 004°20'0 0.0
2016-Dec-05 12:33N 51°16' E 004°20'0 0.0
2016-Dec-05 11:33N 51°16' E 004°20'0 0.3
2016-Dec-05 10:34N 51°16' E 004°20'5 4.7
2016-Dec-05 09:33N 51°21' E 004°17'4 4.3
2016-Dec-05 08:33N 51°24' E 004°12'9 8.7
2016-Dec-05 07:34N 51°26' E 003°59'10 9.9
2016-Dec-05 06:34N 51°22' E 003°44'1111.0
2016-Dec-05 05:34N 51°25' E 003°27'1514.9
2016-Dec-05 04:34N 51°25' E 003°03'1313.4
2016-Dec-05 03:33N 51°22' E 002°42'1414.1
2016-Dec-05 02:33N 51°19' E 002°20'1515.2
2016-Dec-05 01:33N 51°12' E 001°58'1414.4
2016-Dec-05 00:33N 51°04' E 001°39'1211.7
2016-Dec-04 23:33N 50°56' E 001°26'1312.7
2016-Dec-04 22:30N 50°42' E 001°22'5113.0
2016-Dec-04 18:33N 50°05' E 000°26'1312.8
2016-Dec-04 17:33N 49°56' E 000°13'1312.8
2016-Dec-04 16:33N 49°46' W 000°00'1312.9
2016-Dec-04 15:33N 49°33' W 000°02'10 9.6
2016-Dec-04 14:34N 49°29' E 000°10'1 0.5
2016-Dec-04 13:33N 49°29' E 000°11'0 0.0
2016-Dec-04 12:33N 49°29' E 000°11'0 0.0
2016-Dec-04 11:33N 49°29' E 000°11'0 0.0
2016-Dec-04 10:33N 49°29' E 000°11'0 0.0
2016-Dec-04 09:33N 49°29' E 000°11'0 0.0
2016-Dec-04 08:33N 49°29' E 000°11'0 0.0
2016-Dec-04 07:33N 49°29' E 000°11'0 0.0
2016-Dec-04 06:33N 49°29' E 000°11'0 0.0
2016-Dec-04 05:33N 49°29' E 000°11'0 0.0
2016-Dec-04 04:33N 49°29' E 000°11'0 0.0
2016-Dec-04 03:33N 49°29' E 000°11'0 0.0
2016-Dec-04 02:33N 49°29' E 000°11'0 0.0
2016-Dec-04 01:33N 49°29' E 000°11'0 0.0
2016-Dec-04 00:33N 49°29' E 000°11'0 0.0
2016-Dec-03 23:33N 49°29' E 000°11'0 0.0
2016-Dec-03 22:33N 49°29' E 000°11'0 0.0
2016-Dec-03 21:33N 49°29' E 000°11'0 0.0
2016-Dec-03 20:33N 49°29' E 000°11'0 0.0
2016-Dec-03 19:33N 49°29' E 000°11'0 0.0
2016-Dec-03 18:33N 49°29' E 000°11'0 0.0
2016-Dec-03 17:33N 49°29' E 000°11'0 0.0
2016-Dec-03 16:33N 49°29' E 000°11'0 0.0
2016-Dec-03 15:33N 49°29' E 000°11'0 0.0
2016-Dec-03 14:33N 49°29' E 000°11'0 0.0
2016-Dec-03 13:33N 49°29' E 000°11'1 1.2
2016-Dec-03 12:33N 49°28' E 000°09'7 7.0
2016-Dec-03 11:33N 49°30' W 000°01'1 1.2
2016-Dec-03 10:33N 49°30' W 000°03'0 0.2
2016-Dec-03 09:33N 49°30' W 000°03'0 0.0
2016-Dec-03 08:33N 49°30' W 000°03'0 0.1
2016-Dec-03 07:33N 49°30' W 000°03'0 0.0
2016-Dec-03 06:33N 49°30' W 000°03'0 0.0
2016-Dec-03 05:33N 49°30' W 000°03'0 0.0
2016-Dec-03 04:33N 49°30' W 000°03'0 0.0
2016-Dec-03 03:33N 49°30' W 000°03'0 0.0
2016-Dec-03 02:33N 49°30' W 000°03'0 0.0
2016-Dec-03 01:33N 49°30' W 000°03'0 0.0
2016-Dec-03 00:33N 49°30' W 000°03'0 0.1
2016-Dec-02 23:33N 49°30' W 000°03'0 0.0
2016-Dec-02 22:33N 49°30' W 000°03'0 0.1
2016-Dec-02 21:33N 49°30' W 000°03'0 0.0
2016-Dec-02 20:33N 49°30' W 000°03'0 0.1
2016-Dec-02 19:33N 49°30' W 000°03'0 0.1
2016-Dec-02 18:32N 49°30' W 000°03'0 0.0
2016-Dec-02 17:32N 49°30' W 000°03'0 0.0
2016-Dec-02 16:32N 49°30' W 000°03'0 0.0
2016-Dec-02 15:32N 49°30' W 000°03'0 0.0
2016-Dec-02 14:32N 49°30' W 000°03'0 0.0
2016-Dec-02 13:32N 49°30' W 000°03'0 0.1
2016-Dec-02 12:32N 49°30' W 000°03'0 0.0
2016-Dec-02 11:32N 49°30' W 000°03'0 0.0
2016-Dec-02 10:32N 49°30' W 000°03'0 0.0
2016-Dec-02 09:32N 49°30' W 000°03'0 0.1
2016-Dec-02 08:32N 49°30' W 000°03'0 0.1
2016-Dec-02 07:32N 49°30' W 000°03'0 0.1
2016-Dec-02 06:32N 49°30' W 000°03'0 0.1
2016-Dec-02 05:32N 49°30' W 000°03'0 0.0
2016-Dec-02 04:32N 49°30' W 000°03'0 0.0
2016-Dec-02 03:32N 49°30' W 000°03'0 0.0
2016-Dec-02 02:32N 49°30' W 000°03'0 0.0
2016-Dec-02 01:32N 49°30' W 000°03'0 0.0
2016-Dec-02 00:32N 49°30' W 000°03'0 0.1
2016-Dec-01 23:32N 49°30' W 000°03'0 0.0
2016-Dec-01 22:32N 49°30' W 000°03'0 0.0
2016-Dec-01 21:32N 49°30' W 000°03'0 0.1
2016-Dec-01 20:32N 49°30' W 000°03'0 0.1
2016-Dec-01 19:32N 49°30' W 000°03'0 0.1
2016-Dec-01 18:32N 49°30' W 000°03'0 0.1
2016-Dec-01 17:32N 49°30' W 000°03'0 0.0
2016-Dec-01 16:32N 49°30' W 000°03'0 0.0
2016-Dec-01 15:32N 49°30' W 000°03'0 0.0
2016-Dec-01 14:32N 49°30' W 000°03'0 0.1
2016-Dec-01 13:32N 49°30' W 000°03'0 0.1
2016-Dec-01 12:32N 49°30' W 000°03'0 0.0
2016-Dec-01 11:32N 49°30' W 000°03'0 0.0
2016-Dec-01 10:32N 49°30' W 000°03'0 0.0
2016-Dec-01 09:32N 49°30' W 000°03'0 0.0
2016-Dec-01 08:32N 49°30' W 000°03'0 0.1
2016-Dec-01 07:32N 49°30' W 000°03'0 0.1
2016-Dec-01 06:31N 49°30' W 000°03'0 0.1
2016-Dec-01 05:31N 49°30' W 000°03'0 0.0
2016-Dec-01 04:31N 49°30' W 000°03'0 0.0
2016-Dec-01 03:31N 49°30' W 000°03'0 0.0
2016-Dec-01 02:31N 49°30' W 000°03'0 0.0
2016-Dec-01 01:31N 49°30' W 000°03'0 0.0
2016-Dec-01 00:31N 49°30' W 000°03'0 0.1
2016-Nov-30 23:31N 49°30' W 000°03'0 0.0
2016-Nov-30 22:31N 49°30' W 000°03'0 0.0
2016-Nov-30 21:31N 49°30' W 000°03'0 0.0
2016-Nov-30 20:31N 49°30' W 000°03'0 0.1
2016-Nov-30 19:31N 49°30' W 000°03'0 0.1
2016-Nov-30 18:31N 49°30' W 000°03'0 0.1
2016-Nov-30 17:31N 49°30' W 000°03'0 0.0
2016-Nov-30 16:31N 49°30' W 000°03'0 0.0
2016-Nov-30 15:31N 49°30' W 000°03'0 0.0
2016-Nov-30 14:31N 49°30' W 000°03'0 0.0
2016-Nov-30 13:31N 49°30' W 000°03'0 0.1
2016-Nov-30 12:31N 49°30' W 000°03'0 0.1
2016-Nov-30 11:31N 49°30' W 000°03'0 0.0
2016-Nov-30 10:31N 49°30' W 000°03'0 0.0
2016-Nov-30 09:31N 49°30' W 000°03'0 0.0
2016-Nov-30 08:31N 49°30' W 000°03'0 0.1
2016-Nov-30 07:31N 49°30' W 000°03'0 0.0
2016-Nov-30 06:31N 49°30' W 000°03'0 0.1
2016-Nov-30 05:31N 49°30' W 000°03'0 0.1
2016-Nov-30 04:31N 49°30' W 000°03'0 0.0
2016-Nov-30 03:31N 49°30' W 000°03'0 0.0
2016-Nov-30 02:31N 49°30' W 000°03'0 0.0
2016-Nov-30 01:31N 49°30' W 000°03'0 0.0
2016-Nov-30 00:31N 49°30' W 000°03'0 0.1
2016-Nov-29 23:33N 49°30' W 000°03'0 0.1
2016-Nov-29 22:34N 49°30' W 000°03'0 0.0
2016-Nov-29 21:34N 49°30' W 000°03'0 0.1
2016-Nov-29 20:34N 49°30' W 000°03'0 0.3
2016-Nov-29 19:32N 49°29' W 000°02'2 2.0
2016-Nov-29 18:33N 49°31' W 000°05'1413.6
2016-Nov-29 17:34N 49°44' W 000°02'1514.7
2016-Nov-29 16:34N 49°56' E 000°12'2015.0
2016-Nov-29 15:12N 50°11' E 000°32'913.6
2016-Nov-29 14:31N 50°21' E 000°33'3612.2
2016-Nov-29 11:33N 50°50' E 001°07'1211.9
2016-Nov-29 10:33N 50°57' E 001°21'1313.3
2016-Nov-29 09:34N 51°08' E 001°34'1514.9
2016-Nov-29 08:34N 51°19' E 001°50'1615.6
2016-Nov-29 07:33N 51°32' E 002°04'  

Dump ship's entire track history